Time;durP1;ratioP1;P1;durP2;ratioP2;P2;SDS_P1;SDS_P2;PMS_P1;PMS_P2;Temp;Humidity;BMP_temperature;BMP_pressure;BME280_temperature;BME280_humidity;BME280_pressure;Samples;Min_cycle;Max_cycle;Signal;HPM_P1;HPM_P2
2022/06/02 00:00:19;;;;;;;0.10;0.08;;;19.10;99.90;;;;;;5077596;28;20079;-72
2022/06/02 00:03:26;;;;;;;0.38;0.30;;;19.30;99.90;;;;;;5077851;28;20473;-72
2022/06/02 00:06:06;;;;;;;0.47;0.47;;;19.20;99.90;;;;;;5066916;28;20043;-72
2022/06/02 00:08:49;;;;;;;0.00;0.00;;;19.30;99.90;;;;;;5081434;28;20028;-72
2022/06/02 00:11:39;;;;;;;1.17;0.82;;;19.50;99.90;;;;;;5080063;28;20056;-72
2022/06/02 00:14:17;;;;;;;0.57;0.38;;;19.60;99.40;;;;;;5078628;28;20024;-72
2022/06/02 00:16:52;;;;;;;0.03;0.03;;;19.70;98.50;;;;;;5080027;28;20468;-72
2022/06/02 00:19:55;;;;;;;0.47;0.20;;;19.80;97.70;;;;;;5080823;28;20047;-72
2022/06/02 00:22:44;;;;;;;18.42;13.70;;;20.00;96.80;;;;;;5080972;28;20020;-72
2022/06/02 00:25:32;;;;;;;0.00;0.00;;;20.10;96.60;;;;;;5073809;28;20070;-72
2022/06/02 00:28:29;;;;;;;0.00;0.00;;;20.40;95.20;;;;;;5078987;28;20466;-72
2022/06/02 00:31:20;;;;;;;0.08;0.08;;;21.10;92.60;;;;;;5079246;28;20466;-72
2022/06/02 00:34:13;;;;;;;0.05;0.05;;;21.40;88.10;;;;;;5078489;28;20035;-72
2022/06/02 00:37:05;;;;;;;0.00;0.00;;;21.70;88.60;;;;;;5076463;28;20037;-72
2022/06/02 00:39:34;;;;;;;0.17;0.17;;;21.80;87.10;;;;;;5057736;28;20425;-72
2022/06/02 00:42:23;;;;;;;0.00;0.00;;;22.00;84.60;;;;;;5075415;28;20123;-73
2022/06/02 00:44:59;;;;;;;0.40;0.40;;;22.00;85.50;;;;;;5078100;28;20471;-74
2022/06/02 00:47:53;;;;;;;0.10;0.10;;;22.00;86.90;;;;;;5072391;28;20029;-73
2022/06/02 00:50:42;;;;;;;0.30;0.28;;;22.10;87.40;;;;;;5073168;28;20025;-74
2022/06/02 00:53:32;;;;;;;0.20;0.20;;;22.20;87.90;;;;;;5062992;28;20119;-73
2022/06/02 00:59:46;;;;;;;0.00;0.00;;;22.20;90.70;;;;;;5067888;28;20373;-74
2022/06/02 01:02:12;;;;;;;0.88;0.47;;;22.30;91.20;;;;;;5065778;28;20385;-73
2022/06/02 01:04:42;;;;;;;1.23;0.85;;;21.90;92.60;;;;;;5072296;28;20024;-71
2022/06/02 01:07:36;;;;;;;0.40;0.40;;;21.50;96.70;;;;;;5054256;28;20040;-71
2022/06/02 01:10:29;;;;;;;5.20;0.50;;;21.10;99.30;;;;;;5078087;28;20143;-73
2022/06/02 01:13:15;;;;;;;0.40;0.30;;;21.00;99.90;;;;;;5081903;28;20522;-72
2022/06/02 01:15:52;;;;;;;0.85;0.85;;;21.50;99.90;;;;;;5076859;28;20034;-74
2022/06/02 01:18:43;;;;;;;1.17;1.17;;;22.30;99.00;;;;;;5074128;28;20037;-72
2022/06/02 01:21:50;;;;;;;1.48;0.98;;;23.20;92.60;;;;;;5079387;28;20028;-73
2022/06/02 01:25:04;;;;;;;0.00;0.00;;;23.90;87.50;;;;;;5076075;28;20027;-73
2022/06/02 01:28:11;;;;;;;0.00;0.00;;;24.20;84.10;;;;;;4998216;28;20137;-73
2022/06/02 01:30:45;;;;;;;0.65;0.20;;;24.00;82.70;;;;;;5059781;28;20464;-73
2022/06/02 01:33:25;;;;;;;0.52;0.52;;;23.70;81.70;;;;;;5078452;28;20116;-73
2022/06/02 01:36:18;;;;;;;0.08;0.08;;;23.40;83.70;;;;;;5074930;28;20429;-73
2022/06/02 01:39:14;;;;;;;1.55;0.50;;;23.20;81.90;;;;;;5078357;28;20028;-72
2022/06/02 01:42:13;;;;;;;0.32;0.32;;;22.70;82.40;;;;;;5080102;28;20017;-73
2022/06/02 01:44:56;;;;;;;0.10;0.10;;;21.70;91.10;;;;;;5056956;28;20361;-72
2022/06/02 01:47:31;;;;;;;1.48;0.50;;;21.70;94.00;;;;;;5076199;28;20111;-72
2022/06/02 01:50:25;;;;;;;0.22;0.15;;;21.70;94.80;;;;;;5065195;28;20071;-72
2022/06/02 01:53:07;;;;;;;9.68;1.10;;;21.80;95.10;;;;;;5071484;28;20032;-72
2022/06/02 01:56:13;;;;;;;10.13;0.60;;;21.50;95.90;;;;;;5074510;28;20489;-72
2022/06/02 01:59:40;;;;;;;0.75;0.35;;;21.40;99.30;;;;;;5070441;28;20025;-73
2022/06/02 02:02:18;;;;;;;0.38;0.30;;;21.90;98.80;;;;;;5038515;28;20036;-72
2022/06/02 02:05:02;;;;;;;0.68;0.52;;;22.20;96.70;;;;;;5061253;28;20505;-72
2022/06/02 02:07:46;;;;;;;0.88;0.60;;;22.60;95.40;;;;;;5068732;28;20132;-72
2022/06/02 02:10:41;;;;;;;0.28;0.28;;;22.30;94.60;;;;;;5071951;28;20385;-72
2022/06/02 02:13:42;;;;;;;1.02;0.70;;;21.80;97.20;;;;;;5053753;28;20041;-72
2022/06/02 02:16:26;;;;;;;0.40;0.40;;;22.30;95.40;;;;;;5072635;28;20103;-72
2022/06/02 02:19:10;;;;;;;1.10;0.52;;;22.50;95.50;;;;;;5075828;28;20058;-72
2022/06/02 02:21:54;;;;;;;0.00;0.00;;;22.70;93.40;;;;;;5073288;28;20024;-72
2022/06/02 02:24:38;;;;;;;0.20;0.20;;;23.10;92.30;;;;;;5073365;28;20028;-73
2022/06/02 02:27:07;;;;;;;0.47;0.20;;;23.20;91.60;;;;;;5073751;28;20033;-74
2022/06/02 02:29:56;;;;;;;0.20;0.20;;;23.00;91.90;;;;;;5080230;28;20358;-74
2022/06/02 02:32:46;;;;;;;0.00;0.00;;;23.40;90.10;;;;;;5079739;28;20020;-72
2022/06/02 02:35:45;;;;;;;0.40;0.40;;;23.80;86.60;;;;;;5070338;28;20056;-72
2022/06/02 02:38:30;;;;;;;0.35;0.28;;;23.60;86.90;;;;;;5074679;28;20020;-73
2022/06/02 02:41:02;;;;;;;20.90;3.78;;;23.00;90.70;;;;;;5057388;28;20024;-73
2022/06/02 02:44:04;;;;;;;1.80;0.45;;;23.10;88.70;;;;;;5076059;28;20025;-73
2022/06/02 02:46:51;;;;;;;0.08;0.08;;;22.60;89.60;;;;;;5014615;28;20037;-73
2022/06/02 02:49:37;;;;;;;0.00;0.00;;;22.90;90.80;;;;;;5056700;28;20082;-74
2022/06/02 02:52:25;;;;;;;0.00;0.00;;;23.50;88.70;;;;;;5049837;28;20029;-74
2022/06/02 02:55:19;;;;;;;0.40;0.00;;;23.80;86.90;;;;;;5075793;28;20528;-73
2022/06/02 02:57:51;;;;;;;1.00;1.00;;;24.20;85.50;;;;;;5055037;28;20127;-74
2022/06/02 03:00:34;;;;;;;0.00;0.00;;;24.20;84.80;;;;;;5067317;28;20025;-74
2022/06/02 03:03:21;;;;;;;0.28;0.15;;;24.80;80.90;;;;;;5059852;28;20654;-75
2022/06/02 03:05:52;;;;;;;0.00;0.00;;;25.70;74.00;;;;;;5068220;28;20031;-72
2022/06/02 03:09:01;;;;;;;4.72;0.80;;;26.40;69.40;;;;;;5070931;28;20040;-73
2022/06/02 03:11:45;;;;;;;2.95;0.60;;;26.50;65.30;;;;;;5028088;28;20044;-74
2022/06/02 03:14:26;;;;;;;0.10;0.10;;;26.60;65.20;;;;;;5046701;28;20024;-73
2022/06/02 03:17:24;;;;;;;4.15;0.20;;;26.40;65.10;;;;;;5047246;28;20032;-73
2022/06/02 03:20:19;;;;;;;19.33;0.70;;;26.20;62.60;;;;;;5022413;28;20466;-74
2022/06/02 03:22:54;;;;;;;1.38;0.43;;;25.30;65.30;;;;;;5048988;28;20044;-73
2022/06/02 03:25:38;;;;;;;0.77;0.70;;;25.70;65.30;;;;;;5044179;28;20025;-73
2022/06/02 03:28:42;;;;;;;5.07;0.43;;;25.80;63.20;;;;;;5041553;28;20087;-73
2022/06/02 03:31:34;;;;;;;1.38;0.50;;;25.10;63.00;;;;;;5045777;28;20033;-72
2022/06/02 03:34:12;;;;;;;0.52;0.38;;;24.90;65.10;;;;;;5044117;28;20541;-72
2022/06/02 03:37:09;;;;;;;0.82;0.17;;;25.10;66.00;;;;;;5043719;28;20025;-74
2022/06/02 03:40:16;;;;;;;0.30;0.30;;;25.00;64.00;;;;;;5043526;28;20367;-74
2022/06/02 03:43:11;;;;;;;0.70;0.60;;;25.40;64.80;;;;;;4998597;28;20030;-72
2022/06/02 03:46:09;;;;;;;0.00;0.00;;;26.20;61.10;;;;;;5041940;28;20033;-73
2022/06/02 03:48:38;;;;;;;0.00;0.00;;;26.40;60.50;;;;;;5032047;28;20040;-73
2022/06/02 03:51:04;;;;;;;0.00;0.00;;;27.00;57.90;;;;;;5046106;28;20075;-73
2022/06/02 03:53:45;;;;;;;0.32;0.10;;;27.30;56.60;;;;;;5049327;28;20021;-73
2022/06/02 03:56:32;;;;;;;0.65;0.65;;;27.30;57.20;;;;;;5051096;28;20351;-73
2022/06/02 03:59:26;;;;;;;0.00;0.00;;;27.10;57.10;;;;;;5048169;28;20412;-73
2022/06/02 04:02:09;;;;;;;0.45;0.38;;;27.00;58.50;;;;;;5052126;28;20020;-73
2022/06/02 04:04:55;;;;;;;1.58;0.28;;;27.00;58.50;;;;;;5038270;28;20063;-74
2022/06/02 04:07:52;;;;;;;1.17;0.95;;;26.90;57.00;;;;;;5046951;28;20029;-73
2022/06/02 04:10:54;;;;;;;0.88;0.63;;;26.50;57.70;;;;;;5042692;28;20059;-73
2022/06/02 04:13:45;;;;;;;0.45;0.20;;;26.00;58.40;;;;;;5040438;28;20474;-74
2022/06/02 04:16:39;;;;;;;0.75;0.75;;;26.10;59.30;;;;;;5044641;28;20041;-73
2022/06/02 04:23:02;;;;;;;0.10;0.10;;;26.50;55.70;;;;;;5040367;28;20079;-73
2022/06/02 04:25:39;;;;;;;0.05;0.00;;;26.60;56.90;;;;;;5038994;28;20048;-73
2022/06/02 04:28:27;;;;;;;0.80;0.80;;;26.80;55.70;;;;;;5044485;28;20128;-74
2022/06/02 04:31:06;;;;;;;0.00;0.00;;;26.60;54.60;;;;;;5039794;28;20021;-73
2022/06/02 04:33:42;;;;;;;0.00;0.00;;;26.80;53.40;;;;;;5044930;28;20048;-74
2022/06/02 04:36:33;;;;;;;0.00;0.00;;;26.40;50.40;;;;;;5043762;28;20386;-74
2022/06/02 04:39:14;;;;;;;0.00;0.00;;;27.20;51.50;;;;;;5049252;28;20044;-72
2022/06/02 04:41:53;;;;;;;0.00;0.00;;;27.60;52.20;;;;;;5049291;28;20489;-73
2022/06/02 04:45:17;;;;;;;0.00;0.00;;;27.40;50.00;;;;;;5044385;28;20136;-73
2022/06/02 04:48:12;;;;;;;0.00;0.00;;;27.40;48.40;;;;;;5012302;28;20092;-74
2022/06/02 04:50:43;;;;;;;0.80;0.38;;;28.00;46.80;;;;;;5002718;28;20041;-72
2022/06/02 04:53:31;;;;;;;1.83;1.73;;;27.40;49.10;;;;;;5034013;28;20393;-73
2022/06/02 04:56:07;;;;;;;0.00;0.00;;;27.50;47.50;;;;;;5047489;28;20104;-74
2022/06/02 04:59:11;;;;;;;0.00;0.00;;;27.40;48.60;;;;;;5049771;28;20068;-74
2022/06/02 05:01:54;;;;;;;0.57;0.20;;;27.90;45.80;;;;;;5045066;28;20025;-74
2022/06/02 05:04:43;;;;;;;0.00;0.00;;;28.50;44.90;;;;;;5047615;28;20435;-73
2022/06/02 05:07:16;;;;;;;0.00;0.00;;;27.80;43.90;;;;;;5050617;28;20021;-74
2022/06/02 05:10:02;;;;;;;0.10;0.00;;;28.30;43.50;;;;;;5053100;28;20044;-74
2022/06/02 05:12:45;;;;;;;0.00;0.00;;;28.60;41.30;;;;;;5072819;28;20052;-74
2022/06/02 05:15:48;;;;;;;0.00;0.00;;;28.10;40.30;;;;;;5067570;28;20059;-74
2022/06/02 05:18:30;;;;;;;0.00;0.00;;;27.90;40.50;;;;;;5068471;28;20582;-74
2022/06/02 05:21:10;;;;;;;0.00;0.00;;;27.70;40.60;;;;;;5069540;28;20111;-75
2022/06/02 05:23:57;;;;;;;0.13;0.13;;;27.80;41.60;;;;;;5069039;28;20144;-75
2022/06/02 05:26:26;;;;;;;0.00;0.00;;;28.10;41.70;;;;;;5068770;28;20100;-74
2022/06/02 05:29:18;;;;;;;1.30;1.20;;;27.60;40.00;;;;;;5072744;28;20048;-74
2022/06/02 05:32:08;;;;;;;0.10;0.10;;;27.00;40.60;;;;;;5065454;28;20489;-74
2022/06/02 05:34:55;;;;;;;0.00;0.00;;;27.10;41.60;;;;;;5066267;28;20040;-72
2022/06/02 05:37:50;;;;;;;0.00;0.00;;;27.40;42.70;;;;;;5027455;28;20123;-75
2022/06/02 05:40:19;;;;;;;0.20;0.20;;;27.30;42.10;;;;;;5068379;28;20055;-74
2022/06/02 05:42:54;;;;;;;0.45;0.45;;;27.40;43.50;;;;;;5070587;28;20051;-72
2022/06/02 05:45:49;;;;;;;0.10;0.10;;;27.50;44.20;;;;;;5071978;28;20021;-72
2022/06/02 05:48:35;;;;;;;0.00;0.00;;;27.50;43.60;;;;;;5014377;28;21437;-72
2022/06/02 05:51:25;;;;;;;0.00;0.00;;;27.30;41.00;;;;;;5069360;28;20040;-74
2022/06/02 05:54:30;;;;;;;0.00;0.00;;;27.20;40.10;;;;;;5068837;28;20036;-74
2022/06/02 05:57:17;;;;;;;0.00;0.00;;;27.50;39.30;;;;;;5067382;28;20411;-74
2022/06/02 06:00:17;;;;;;;0.28;0.28;;;27.70;40.20;;;;;;5067385;28;20096;-75
2022/06/02 06:03:24;;;;;;;0.00;0.00;;;27.90;39.30;;;;;;5067887;28;20111;-74
2022/06/02 06:05:50;;;;;;;0.15;0.10;;;27.80;40.30;;;;;;5061383;28;20028;-74
2022/06/02 06:08:52;;;;;;;0.00;0.00;;;27.60;42.40;;;;;;5066436;28;20026;-73
2022/06/02 06:11:38;;;;;;;0.00;0.00;;;27.30;42.90;;;;;;5064251;28;21628;-74
2022/06/02 06:14:19;;;;;;;0.00;0.00;;;27.50;43.40;;;;;;5062926;28;20404;-76
2022/06/02 06:17:10;;;;;;;0.00;0.00;;;27.60;42.80;;;;;;5064903;28;20081;-74
2022/06/02 06:19:56;;;;;;;0.00;0.00;;;27.30;40.50;;;;;;5065550;28;20025;-72
2022/06/02 06:22:40;;;;;;;5.03;4.75;;;27.40;40.60;;;;;;5066499;28;20401;-73
2022/06/02 06:25:18;;;;;;;0.00;0.00;;;27.70;40.50;;;;;;5068096;28;20107;-73
2022/06/02 06:28:01;;;;;;;0.00;0.00;;;27.50;39.80;;;;;;5064518;28;20483;-73
2022/06/02 06:30:52;;;;;;;0.00;0.00;;;27.50;41.00;;;;;;5064853;28;20413;-73
2022/06/02 06:33:38;;;;;;;0.00;0.00;;;28.00;40.30;;;;;;5061039;28;20043;-73
2022/06/02 06:36:28;;;;;;;0.00;0.00;;;28.10;38.20;;;;;;5066934;28;20039;-73
2022/06/02 06:39:29;;;;;;;1.13;0.40;;;28.00;37.40;;;;;;5056947;28;20047;-75
2022/06/02 06:42:10;;;;;;;0.00;0.00;;;28.10;36.40;;;;;;5065460;28;20033;-74
2022/06/02 06:44:49;;;;;;;7.65;6.93;;;28.30;37.20;;;;;;5064840;28;20024;-73
2022/06/02 06:47:24;;;;;;;0.90;0.45;;;28.40;36.70;;;;;;5065518;28;20033;-73
2022/06/02 06:50:29;;;;;;;0.00;0.00;;;28.10;36.60;;;;;;5059210;28;20021;-72
2022/06/02 06:53:17;;;;;;;0.00;0.00;;;28.20;37.50;;;;;;5063410;28;20477;-74
2022/06/02 06:55:59;;;;;;;0.90;0.70;;;28.20;37.50;;;;;;5068635;28;20080;-73
2022/06/02 06:58:54;;;;;;;0.10;0.00;;;27.90;38.40;;;;;;5060768;28;20127;-74
2022/06/02 07:01:32;;;;;;;1.58;1.58;;;28.00;38.50;;;;;;5067951;28;20045;-74
2022/06/02 07:04:06;;;;;;;0.00;0.00;;;27.90;38.20;;;;;;5069333;28;20056;-74
2022/06/02 07:06:41;;;;;;;0.00;0.00;;;27.90;39.40;;;;;;5069099;28;20039;-74
2022/06/02 07:09:37;;;;;;;0.20;0.20;;;28.00;40.60;;;;;;5070203;28;20024;-75
2022/06/02 07:12:52;;;;;;;0.08;0.08;;;27.90;39.40;;;;;;5066421;28;20036;-73
2022/06/02 07:15:34;;;;;;;0.00;0.00;;;27.80;38.70;;;;;;5034399;28;20068;-74
2022/06/02 07:18:15;;;;;;;0.28;0.20;;;27.90;39.40;;;;;;5067091;28;20039;-73
2022/06/02 07:20:55;;;;;;;0.35;0.25;;;28.10;39.00;;;;;;5060041;28;20032;-73
2022/06/02 07:23:47;;;;;;;16.40;0.35;;;27.90;39.20;;;;;;5068397;28;20149;-74
2022/06/02 07:26:30;;;;;;;1.33;1.17;;;27.90;39.30;;;;;;5072712;28;20062;-74
2022/06/02 07:29:17;;;;;;;0.38;0.20;;;28.20;38.70;;;;;;5065907;28;20024;-74
2022/06/02 07:31:55;;;;;;;0.10;0.10;;;28.10;38.70;;;;;;5066513;28;20024;-74
2022/06/02 07:34:24;;;;;;;5.82;2.78;;;28.40;38.90;;;;;;5067459;28;20048;-74
2022/06/02 07:37:16;;;;;;;6.60;1.85;;;28.60;37.40;;;;;;5067662;28;20024;-74
2022/06/02 07:40:06;;;;;;;0.52;0.52;;;28.50;39.80;;;;;;5050622;28;20032;-73
2022/06/02 07:42:59;;;;;;;0.10;0.10;;;28.00;40.00;;;;;;5065215;28;20045;-74
2022/06/02 07:45:55;;;;;;;2.50;0.47;;;28.10;40.10;;;;;;5066217;28;20040;-73
2022/06/02 07:49:01;;;;;;;0.00;0.00;;;28.00;39.50;;;;;;5070919;28;20032;-74
2022/06/02 07:51:49;;;;;;;2.83;0.32;;;28.20;40.00;;;;;;5045922;28;20044;-74
2022/06/02 07:54:38;;;;;;;0.00;0.00;;;28.20;39.40;;;;;;5070150;28;20029;-74
2022/06/02 07:57:14;;;;;;;0.00;0.00;;;28.40;39.70;;;;;;5072158;28;20028;-74
2022/06/02 08:00:09;;;;;;;0.00;0.00;;;28.90;36.90;;;;;;5071243;28;20024;-74
2022/06/02 08:02:38;;;;;;;1.10;0.75;;;29.20;34.80;;;;;;5072698;28;20056;-74
2022/06/02 08:05:19;;;;;;;1.13;0.55;;;28.80;34.80;;;;;;5067330;28;20028;-74
2022/06/02 08:07:59;;;;;;;0.00;0.00;;;28.40;34.40;;;;;;5069091;28;20035;-73
2022/06/02 08:10:34;;;;;;;15.77;0.75;;;28.40;35.30;;;;;;5065831;28;20051;-72
2022/06/02 08:13:24;;;;;;;0.00;0.00;;;28.40;36.50;;;;;;5062282;28;20357;-74
2022/06/02 08:16:27;;;;;;;0.75;0.17;;;28.60;36.20;;;;;;5067098;28;20115;-75
2022/06/02 08:19:23;;;;;;;0.10;0.10;;;28.50;36.20;;;;;;5066479;28;20211;-74
2022/06/02 08:21:53;;;;;;;0.17;0.17;;;28.40;37.80;;;;;;5065310;28;20024;-73
2022/06/02 08:24:47;;;;;;;0.00;0.00;;;28.70;38.00;;;;;;5061096;28;20123;-73
2022/06/02 08:27:27;;;;;;;0.35;0.15;;;28.60;39.30;;;;;;5061065;28;20035;-74
2022/06/02 08:30:05;;;;;;;0.30;0.30;;;29.10;39.60;;;;;;5067207;28;20028;-74
2022/06/02 08:32:40;;;;;;;0.10;0.10;;;29.20;39.20;;;;;;5068181;28;20081;-75
2022/06/02 08:35:21;;;;;;;0.22;0.22;;;28.90;39.90;;;;;;5060060;28;20024;-72
2022/06/02 08:38:15;;;;;;;0.00;0.00;;;28.70;41.20;;;;;;5056889;28;21243;-73
2022/06/02 08:41:35;;;;;;;0.32;0.32;;;28.70;37.70;;;;;;5067072;28;20052;-74
2022/06/02 08:44:38;;;;;;;0.00;0.00;;;29.20;37.30;;;;;;5008750;28;20033;-72
2022/06/02 08:47:25;;;;;;;0.00;0.00;;;29.70;36.90;;;;;;5071001;28;20032;-73
2022/06/02 08:50:29;;;;;;;0.00;0.00;;;29.40;37.50;;;;;;5066419;28;20652;-74
2022/06/02 08:53:33;;;;;;;0.57;0.57;;;29.70;37.20;;;;;;5057037;28;21511;-74
2022/06/02 08:56:40;;;;;;;0.00;0.00;;;29.00;37.60;;;;;;5060966;28;20037;-72
2022/06/02 08:59:31;;;;;;;0.00;0.00;;;29.30;37.40;;;;;;5020312;28;20502;-75
2022/06/02 09:02:31;;;;;;;0.00;0.00;;;29.50;36.80;;;;;;5062287;28;20043;-75
2022/06/02 09:05:27;;;;;;;0.00;0.00;;;29.60;37.10;;;;;;5058449;28;20025;-73
2022/06/02 09:08:23;;;;;;;0.00;0.00;;;29.90;37.00;;;;;;5064137;28;20545;-75
2022/06/02 09:10:56;;;;;;;0.00;0.00;;;30.10;37.20;;;;;;5065035;28;20068;-74
2022/06/02 09:13:59;;;;;;;0.00;0.00;;;30.10;37.40;;;;;;5041189;28;20025;-74
2022/06/02 09:16:47;;;;;;;0.00;0.00;;;30.00;37.80;;;;;;5057586;28;20104;-73
2022/06/02 09:19:46;;;;;;;0.00;0.00;;;29.30;39.50;;;;;;5055197;28;20167;-76
2022/06/02 09:22:38;;;;;;;1.02;0.30;;;28.80;40.00;;;;;;5058379;28;20040;-73
2022/06/02 09:25:28;;;;;;;0.10;0.10;;;28.80;40.30;;;;;;5056264;28;20045;-73
2022/06/02 09:28:22;;;;;;;0.00;0.00;;;28.70;41.40;;;;;;5068225;28;20060;-75
2022/06/02 09:30:54;;;;;;;0.00;0.00;;;29.10;40.20;;;;;;5058597;28;20016;-75
2022/06/02 09:33:37;;;;;;;0.00;0.00;;;29.40;39.90;;;;;;5063722;28;20028;-75
2022/06/02 09:36:37;;;;;;;0.00;0.00;;;29.10;40.10;;;;;;5060705;28;20017;-75
2022/06/02 09:39:12;;;;;;;0.00;0.00;;;28.10;42.10;;;;;;5066992;28;20025;-76
2022/06/02 09:41:56;;;;;;;0.00;0.00;;;28.20;42.40;;;;;;5063748;28;20024;-74
2022/06/02 09:44:51;;;;;;;0.00;0.00;;;28.30;41.70;;;;;;5063824;28;20024;-75
2022/06/02 09:47:28;;;;;;;0.00;0.00;;;28.40;42.00;;;;;;5062610;28;20029;-74
2022/06/02 09:50:30;;;;;;;0.00;0.00;;;28.30;42.20;;;;;;5065981;28;20492;-75
2022/06/02 09:53:09;;;;;;;0.00;0.00;;;28.40;42.40;;;;;;5062473;28;20047;-75
2022/06/02 09:55:57;;;;;;;0.10;0.10;;;28.20;42.00;;;;;;5064407;28;20457;-74
2022/06/02 09:58:53;;;;;;;0.13;0.13;;;27.80;43.90;;;;;;5073058;28;20058;-72
2022/06/02 10:01:37;;;;;;;1.08;0.40;;;27.00;47.80;;;;;;5041905;28;20029;-75
2022/06/02 10:04:35;;;;;;;0.05;0.00;;;26.70;47.90;;;;;;5047541;28;20032;-74
2022/06/02 10:07:13;;;;;;;2.85;0.20;;;25.80;51.80;;;;;;5067458;28;20154;-74
2022/06/02 10:10:14;;;;;;;21.60;2.08;;;24.60;54.80;;;;;;5075311;28;20045;-75
2022/06/02 10:12:55;;;;;;;0.00;0.00;;;22.00;99.90;;;;;;5077157;28;20475;-74
2022/06/02 10:15:33;;;;;;;0.55;0.55;;;20.10;99.90;;;;;;5075811;28;20024;-75
2022/06/02 10:18:18;;;;;;;0.08;0.08;;;19.20;99.90;;;;;;5069038;28;20044;-74
2022/06/02 10:21:22;;;;;;;0.00;0.00;;;18.70;99.90;;;;;;5071835;28;20031;-75
2022/06/02 10:24:10;;;;;;;1.00;0.95;;;18.10;99.90;;;;;;4971609;28;20516;-74
2022/06/02 10:26:39;;;;;;;0.00;0.00;;;17.90;99.90;;;;;;5062560;28;20028;-74
2022/06/02 10:29:40;;;;;;;1.55;0.50;;;17.30;99.90;;;;;;5064631;28;20032;-74
2022/06/02 10:32:33;;;;;;;0.00;0.00;;;17.10;99.90;;;;;;5066092;28;20029;-74
2022/06/02 10:35:17;;;;;;;0.00;0.00;;;17.20;99.90;;;;;;5066686;28;20123;-75
2022/06/02 10:37:58;;;;;;;0.00;0.00;;;17.50;99.90;;;;;;5069682;28;20029;-75
2022/06/02 10:40:56;;;;;;;0.00;0.00;;;17.80;99.90;;;;;;5066007;28;20021;-74
2022/06/02 10:43:46;;;;;;;0.00;0.00;;;17.80;99.90;;;;;;5076356;28;20366;-74
2022/06/02 10:46:43;;;;;;;0.00;0.00;;;17.80;99.90;;;;;;5069371;28;20411;-74
2022/06/02 10:49:30;;;;;;;0.00;0.00;;;18.30;99.90;;;;;;5067058;28;20052;-76
2022/06/02 10:52:18;;;;;;;0.10;0.10;;;18.40;99.90;;;;;;5058587;28;20440;-76
2022/06/02 10:55:16;;;;;;;0.10;0.10;;;18.80;99.90;;;;;;5062698;28;20381;-75
2022/06/02 10:57:41;;;;;;;0.00;0.00;;;19.40;99.90;;;;;;5064500;28;20017;-76
2022/06/02 11:00:18;;;;;;;0.00;0.00;;;19.80;99.90;;;;;;5063422;28;20199;-75
2022/06/02 11:03:15;;;;;;;0.00;0.00;;;19.90;99.90;;;;;;5060887;28;20021;-75
2022/06/02 11:06:18;;;;;;;0.00;0.00;;;19.90;99.90;;;;;;5066369;28;20045;-74
2022/06/02 11:09:10;;;;;;;0.00;0.00;;;20.30;99.90;;;;;;5050615;28;20025;-75
2022/06/02 11:12:07;;;;;;;0.00;0.00;;;19.90;99.90;;;;;;5066303;28;20070;-74
2022/06/02 11:15:11;;;;;;;0.00;0.00;;;20.00;99.90;;;;;;5065057;28;20483;-76
2022/06/02 11:17:46;;;;;;;0.00;0.00;;;19.70;99.90;;;;;;5061289;28;20090;-73
2022/06/02 11:20:29;;;;;;;0.00;0.00;;;19.70;99.90;;;;;;5063557;28;20036;-75
2022/06/02 11:23:16;;;;;;;0.00;0.00;;;19.70;99.90;;;;;;5071889;28;20138;-74
2022/06/02 11:26:04;;;;;;;0.00;0.00;;;19.60;99.90;;;;;;5076081;28;20106;-74
2022/06/02 11:28:39;;;;;;;0.28;0.28;;;19.60;99.90;;;;;;5071479;28;20033;-74
2022/06/02 11:31:13;;;;;;;0.00;0.00;;;19.70;99.90;;;;;;5072699;28;20516;-74
2022/06/02 11:34:08;;;;;;;1.20;1.15;;;20.00;99.90;;;;;;5065800;28;20031;-73
2022/06/02 11:36:53;;;;;;;0.10;0.10;;;20.30;99.90;;;;;;5062523;28;20028;-73
2022/06/02 11:39:40;;;;;;;0.30;0.30;;;20.60;99.90;;;;;;5071419;28;20060;-74
2022/06/02 11:42:22;;;;;;;0.00;0.00;;;20.70;99.90;;;;;;5069561;28;20027;-73
2022/06/02 11:45:05;;;;;;;1.02;1.02;;;20.90;99.90;;;;;;5070223;28;20082;-75
2022/06/02 11:48:01;;;;;;;0.00;0.00;;;21.00;99.90;;;;;;5069666;28;20714;-74
2022/06/02 11:50:40;;;;;;;0.00;0.00;;;21.20;99.90;;;;;;5071941;28;20020;-74
2022/06/02 11:53:27;;;;;;;0.00;0.00;;;21.30;99.90;;;;;;5068986;28;20070;-74
2022/06/02 11:56:05;;;;;;;11.38;6.50;;;21.70;99.90;;;;;;5075849;28;20056;-74
2022/06/02 11:58:51;;;;;;;0.05;0.05;;;21.60;99.90;;;;;;5067682;28;20020;-74
2022/06/02 12:01:27;;;;;;;0.43;0.20;;;21.70;99.90;;;;;;5068635;28;20052;-74
2022/06/02 12:04:24;;;;;;;1.00;0.43;;;21.90;99.90;;;;;;5071039;28;20025;-74
2022/06/02 12:07:05;;;;;;;0.30;0.13;;;21.90;99.90;;;;;;5074428;28;20073;-73
2022/06/02 12:09:50;;;;;;;1.10;0.20;;;21.80;99.90;;;;;;5072563;28;20020;-73
2022/06/02 12:13:02;;;;;;;0.00;0.00;;;22.00;99.90;;;;;;5066493;28;20111;-75
2022/06/02 12:16:03;;;;;;;0.00;0.00;;;22.20;99.90;;;;;;5061857;28;20346;-75
2022/06/02 12:18:44;;;;;;;1.40;1.33;;;22.00;98.40;;;;;;5054833;28;20040;-76
2022/06/02 12:21:44;;;;;;;2.30;0.85;;;22.30;93.00;;;;;;5052537;28;20052;-73
2022/06/02 12:24:31;;;;;;;0.00;0.00;;;22.30;91.70;;;;;;5062849;28;20029;-74
2022/06/02 12:27:09;;;;;;;0.00;0.00;;;22.50;90.70;;;;;;5065915;28;20024;-74
2022/06/02 12:30:12;;;;;;;0.00;0.00;;;22.70;84.10;;;;;;5073866;28;20423;-75
2022/06/02 12:33:07;;;;;;;0.00;0.00;;;22.60;83.40;;;;;;5070437;28;20107;-73
2022/06/02 12:35:42;;;;;;;0.10;0.10;;;22.30;85.30;;;;;;5067274;28;20029;-72
2022/06/02 12:38:23;;;;;;;0.00;0.00;;;22.70;79.70;;;;;;5074568;28;20496;-73
2022/06/02 12:41:04;;;;;;;0.00;0.00;;;22.70;72.70;;;;;;5068723;28;20013;-73
2022/06/02 12:44:09;;;;;;;0.20;0.20;;;22.50;76.00;;;;;;5069022;28;20054;-74
2022/06/02 12:47:02;;;;;;;0.00;0.00;;;22.50;74.10;;;;;;5065282;28;20119;-75
2022/06/02 12:50:04;;;;;;;0.00;0.00;;;22.70;70.40;;;;;;5073165;28;20505;-74
2022/06/02 12:52:39;;;;;;;0.00;0.00;;;22.60;70.80;;;;;;5072445;28;20047;-75
2022/06/02 12:55:28;;;;;;;4.07;0.30;;;22.70;68.90;;;;;;5065585;28;20480;-72
2022/06/02 12:57:57;;;;;;;8.30;3.92;;;22.60;68.20;;;;;;5066599;28;20067;-73
2022/06/02 13:00:35;;;;;;;0.00;0.00;;;22.70;67.90;;;;;;5069735;28;20476;-74
2022/06/02 13:03:14;;;;;;;1.30;0.82;;;22.60;67.50;;;;;;5068315;28;20036;-74
2022/06/02 13:06:21;;;;;;;0.00;0.00;;;22.80;67.00;;;;;;5061773;28;20474;-71
2022/06/02 13:08:56;;;;;;;1.33;0.73;;;23.00;67.80;;;;;;5065604;28;20036;-70
2022/06/02 13:11:46;;;;;;;0.75;0.43;;;22.90;67.40;;;;;;5067090;28;20177;-71
2022/06/02 13:14:24;;;;;;;1.65;0.80;;;22.80;71.20;;;;;;5069454;28;20021;-72
2022/06/02 13:17:32;;;;;;;3.97;1.65;;;22.50;78.50;;;;;;5069311;28;20028;-72
2022/06/02 13:20:27;;;;;;;0.63;0.30;;;22.10;86.30;;;;;;5064056;28;20025;-73
2022/06/02 13:23:23;;;;;;;1.95;1.70;;;21.50;99.90;;;;;;5067304;28;20423;-73
2022/06/02 13:26:29;;;;;;;0.50;0.32;;;20.50;99.90;;;;;;5067764;28;20029;-75
2022/06/02 13:29:29;;;;;;;8.25;1.27;;;19.90;99.90;;;;;;5064836;28;20021;-73
2022/06/02 13:32:14;;;;;;;1.25;0.93;;;19.40;99.90;;;;;;5068358;28;20111;-73
2022/06/02 13:35:11;;;;;;;1.35;0.98;;;19.40;99.90;;;;;;5071504;28;20107;-73
2022/06/02 13:38:18;;;;;;;3.75;1.10;;;19.40;99.90;;;;;;5067961;28;20025;-72
2022/06/02 13:41:06;;;;;;;3.42;2.08;;;19.40;99.90;;;;;;5066204;28;20400;-72
2022/06/02 13:43:54;;;;;;;0.68;0.25;;;19.20;99.90;;;;;;5064371;28;20039;-73
2022/06/02 13:46:44;;;;;;;6.88;1.15;;;19.20;99.90;;;;;;5063583;28;20021;-73
2022/06/02 13:49:16;;;;;;;2.33;0.93;;;19.00;99.90;;;;;;5067682;28;20380;-73
2022/06/02 13:52:10;;;;;;;0.30;0.20;;;18.90;99.90;;;;;;5072381;28;20492;-73
2022/06/02 13:58:00;;;;;;;1.58;1.48;;;19.10;99.90;;;;;;5075012;28;20564;-73
2022/06/02 14:00:53;;;;;;;1.75;1.30;;;19.10;99.90;;;;;;5071783;28;20033;-73
2022/06/02 14:03:56;;;;;;;1.35;0.90;;;19.00;99.90;;;;;;5067561;28;20028;-73
2022/06/02 14:06:25;;;;;;;1.38;0.75;;;19.00;99.90;;;;;;5062712;28;20016;-73
2022/06/02 14:09:23;;;;;;;3.58;0.68;;;19.00;99.90;;;;;;5071625;28;20020;-73
2022/06/02 14:12:25;;;;;;;1.13;1.08;;;19.10;99.90;;;;;;5067332;28;20033;-73
2022/06/02 14:15:01;;;;;;;0.05;0.05;;;19.10;99.90;;;;;;5075297;28;20078;-73
2022/06/02 14:17:50;;;;;;;1.30;0.20;;;19.00;99.90;;;;;;5079684;28;20036;-74
2022/06/02 14:20:23;;;;;;;0.35;0.30;;;19.00;99.90;;;;;;5060622;28;20032;-74
2022/06/02 14:22:51;;;;;;;0.30;0.30;;;19.00;99.90;;;;;;5072982;28;20414;-74
2022/06/02 14:25:33;;;;;;;0.57;0.55;;;18.90;99.90;;;;;;5077055;28;20079;-73
2022/06/02 14:28:20;;;;;;;0.00;0.00;;;19.00;99.90;;;;;;5075611;28;20025;-73
2022/06/02 14:31:06;;;;;;;0.63;0.63;;;19.10;99.90;;;;;;5074682;28;20032;-72
2022/06/02 14:33:40;;;;;;;1.70;1.60;;;19.10;99.90;;;;;;5081587;28;20028;-73
2022/06/02 14:36:31;;;;;;;0.00;0.00;;;19.10;99.90;;;;;;5073962;28;20033;-73
2022/06/02 14:39:43;;;;;;;0.00;0.00;;;19.10;99.90;;;;;;5076509;28;20052;-74
2022/06/02 14:45:32;;;;;;;0.00;0.00;;;19.30;99.90;;;;;;5071109;28;20033;-73